Aérodrome :
LOGIN :

S'inscrire | Disclaimer

   EN    FR    IT 

 










Légende :    VFR   VFR Marginal   IFR   IFR Intensif   IFR Très Intensif
Visi : 
Plafond : 
>= 8 km
>= 3000ft
5 à 8 km
1000 à 3000 ft
1500m à 5 km
500 à 1000 ft
800 à 1500m
200 à 500 ft
< 800m
< 200 ft
Symboles :   Orages  Brouillard  Fortes neiges  Fortes précipitations  Vent > 20 kt
SIGMETs :   Divers  Orages  Givrage  Turbulence  Onde Orograph.  Cendres Volcan.







- Altitude de l'aérodrome : 3 ft
- Code IATA : LWR


EHLW - Leuuwarden Air Base

DERNIER METAR :
  • 281155Z AUTO 31012KT 250V340 9999 FEW025 SCT028 BKN035 10/04 Q1012 BLU

METARs EXPIRÉS :
  • 281126Z AUTO 31012KT 280V350 9999 BKN025 BKN032 BKN047 09/04 Q1012 BLU
  • 281118Z AUTO 32012KT 270V350 9999 FEW021 SCT025 10/04 Q1012 BLU
  • 281113Z AUTO 32011KT 270V340 9999 FEW020 SCT023 BKN042 09/04 Q1013 WHT
  • 281106Z AUTO 32012KT 9999 FEW019 SCT027 BKN038 09/05 Q1013 BLU
  • 281055Z AUTO 31012KT 260V340 9999 FEW020 SCT037 BKN044 09/04 Q1012 BLU
  • 281048Z AUTO 31010KT 260V340 9999 FEW022 SCT025 BKN035 09/04 Q1012 BLU
  • 281029Z AUTO 32008KT 250V350 9999 SCT023 SCT027 BKN035 09/05 Q1012 WHT
  • 281012Z AUTO 30011KT 260V340 9999 -RA SCT022 BKN027 BKN031 09/04 Q1012 WHT
  • 280955Z AUTO 29012KT 250V340 9999 FEW025 SCT034 BKN039 09/04 Q1012 BLU
  • 280935Z AUTO 31010KT 280V350 9999 FEW023 SCT030 BKN036 09/04 Q1012 BLU
  • 280925Z AUTO 30011KT 260V340 9999 FEW024 SCT031 BKN041 08/03 Q1012 RERA BLU
  • 280929Z AUTO 30011KT 280V350 9999 SCT023 SCT028 BKN037 10/06 Q1012 WHT
  • 280911Z AUTO 31010KT 260V320 9999 FEW020 SCT025 BKN031 08/05 Q1012 BLU
  • 280905Z AUTO 31011KT 9999 RA FEW020 SCT024 BKN035 08/04 Q1012 WHT

Prévision TAF périmée.
Pas de NOTAMs connus pour ce terrain.



MET'MAP, la Météo Aéronautique d'un coup d'oeil ! - Copyright ORBIFLY Décembre 2007 - Disclaimer

ORBIFLY MET'MAP TEAM :

Programmation & Développement : Alexandra Zaïnal
Conception & Développement : Baudouin d'Aumeries
Co-Programmation & Développement : Marc-Olivier Méhu
Soutien technique & logistique : Manuel Goepfert

Contact : metmap@orbifly.com




SOURCES & CREDITS :

   NOAA